Malta, Brazil
Current Conditions -  °F | °C
As of 6:00 PM on Wednesday 26 Nov 2014 (Local Time) from SBKG Reporting Station
Clear Clear  
Wind Chill: 77°   Ceiling: Unl
Heat Index: 79°   Visibility: 6mi
Dew Point: 63°   Wind: 18mph
Humidity: 61%   Direction: 110°ESE
Pressure: 29.94"   Gusts: NA
Location:  6.9°S, 37.52°W
Report Text: SBKG 262100Z 11016KT CAVOK 25/17 Q1014
Loading
Personal Weather Stations






























Interactive Weather Map New forecast layout! Learn more

10-Day Weather Forecast

Advertisements
Track Severe Weather on mobile